sensor_id;sensor_type;location;lat;lon;timestamp;P1;durP1;ratioP1;P2;durP2;ratioP2
40204;SDS011;26963;42.666;23.366;2022-07-03T00:01:05;8.45;;;7.63;;
40204;SDS011;26963;42.666;23.366;2022-07-03T00:03:36;8.35;;;7.18;;
40204;SDS011;26963;42.666;23.366;2022-07-03T00:06:05;9.55;;;7.25;;
40204;SDS011;26963;42.666;23.366;2022-07-03T00:08:31;8.25;;;7.30;;
40204;SDS011;26963;42.666;23.366;2022-07-03T00:10:56;8.35;;;7.45;;
40204;SDS011;26963;42.666;23.366;2022-07-03T00:13:22;8.55;;;6.90;;
40204;SDS011;26963;42.666;23.366;2022-07-03T00:16:03;9.70;;;6.88;;
40204;SDS011;26963;42.666;23.366;2022-07-03T00:18:45;8.07;;;7.13;;
40204;SDS011;26963;42.666;23.366;2022-07-03T00:21:19;8.13;;;7.32;;
40204;SDS011;26963;42.666;23.366;2022-07-03T00:23:57;11.40;;;7.43;;
40204;SDS011;26963;42.666;23.366;2022-07-03T00:26:39;9.80;;;7.30;;
40204;SDS011;26963;42.666;23.366;2022-07-03T00:29:21;8.18;;;7.38;;
40204;SDS011;26963;42.666;23.366;2022-07-03T00:32:00;8.55;;;7.43;;
40204;SDS011;26963;42.666;23.366;2022-07-03T00:34:45;10.88;;;7.35;;
40204;SDS011;26963;42.666;23.366;2022-07-03T00:37:53;8.98;;;7.55;;
40204;SDS011;26963;42.666;23.366;2022-07-03T00:40:21;8.43;;;7.30;;
40204;SDS011;26963;42.666;23.366;2022-07-03T00:42:48;10.30;;;7.30;;
40204;SDS011;26963;42.666;23.366;2022-07-03T00:45:19;12.53;;;7.33;;
40204;SDS011;26963;42.666;23.366;2022-07-03T00:47:48;9.77;;;7.53;;
40204;SDS011;26963;42.666;23.366;2022-07-03T00:58:54;7.70;;;6.90;;
40204;SDS011;26963;42.666;23.366;2022-07-03T01:01:24;8.40;;;7.20;;
40204;SDS011;26963;42.666;23.366;2022-07-03T01:04:45;8.73;;;7.10;;
40204;SDS011;26963;42.666;23.366;2022-07-03T01:16:17;11.13;;;7.55;;
40204;SDS011;26963;42.666;23.366;2022-07-03T01:21:31;8.95;;;6.70;;
40204;SDS011;26963;42.666;23.366;2022-07-03T01:24:16;7.80;;;6.45;;
40204;SDS011;26963;42.666;23.366;2022-07-03T01:26:52;8.45;;;7.10;;
40204;SDS011;26963;42.666;23.366;2022-07-03T01:29:47;9.40;;;7.03;;
40204;SDS011;26963;42.666;23.366;2022-07-03T01:32:20;9.15;;;6.70;;
40204;SDS011;26963;42.666;23.366;2022-07-03T01:34:52;11.95;;;6.88;;
40204;SDS011;26963;42.666;23.366;2022-07-03T01:37:20;8.95;;;6.65;;
40204;SDS011;26963;42.666;23.366;2022-07-03T01:39:52;9.93;;;6.82;;
40204;SDS011;26963;42.666;23.366;2022-07-03T01:42:19;10.38;;;6.95;;
40204;SDS011;26963;42.666;23.366;2022-07-03T01:44:47;9.35;;;7.22;;
40204;SDS011;26963;42.666;23.366;2022-07-03T01:47:16;11.90;;;6.53;;
40204;SDS011;26963;42.666;23.366;2022-07-03T01:49:46;7.25;;;6.60;;
40204;SDS011;26963;42.666;23.366;2022-07-03T01:52:15;7.53;;;6.80;;
40204;SDS011;26963;42.666;23.366;2022-07-03T01:54:50;9.60;;;7.00;;
40204;SDS011;26963;42.666;23.366;2022-07-03T01:57:20;8.60;;;6.53;;
40204;SDS011;26963;42.666;23.366;2022-07-03T01:59:48;10.98;;;6.75;;
40204;SDS011;26963;42.666;23.366;2022-07-03T02:10:45;7.40;;;6.70;;
40204;SDS011;26963;42.666;23.366;2022-07-03T02:14:16;7.70;;;6.97;;
40204;SDS011;26963;42.666;23.366;2022-07-03T02:16:25;8.95;;;7.07;;
40204;SDS011;26963;42.666;23.366;2022-07-03T02:18:57;8.43;;;6.68;;
40204;SDS011;26963;42.666;23.366;2022-07-03T02:21:28;8.10;;;7.30;;
40204;SDS011;26963;42.666;23.366;2022-07-03T02:23:58;8.45;;;6.80;;
40204;SDS011;26963;42.666;23.366;2022-07-03T02:26:46;9.40;;;7.57;;
40204;SDS011;26963;42.666;23.366;2022-07-03T02:29:32;10.32;;;7.68;;
40204;SDS011;26963;42.666;23.366;2022-07-03T02:32:06;9.48;;;7.20;;
40204;SDS011;26963;42.666;23.366;2022-07-03T02:35:06;7.40;;;6.68;;
40204;SDS011;26963;42.666;23.366;2022-07-03T02:37:44;8.02;;;6.47;;
40204;SDS011;26963;42.666;23.366;2022-07-03T02:40:32;8.73;;;7.10;;
40204;SDS011;26963;42.666;23.366;2022-07-03T02:45:36;8.65;;;7.18;;
40204;SDS011;26963;42.666;23.366;2022-07-03T02:48:30;9.70;;;6.80;;
40204;SDS011;26963;42.666;23.366;2022-07-03T02:51:09;8.50;;;7.13;;
40204;SDS011;26963;42.666;23.366;2022-07-03T02:53:44;12.50;;;7.60;;
40204;SDS011;26963;42.666;23.366;2022-07-03T03:05:05;7.88;;;7.07;;
40204;SDS011;26963;42.666;23.366;2022-07-03T03:10:35;9.68;;;6.70;;
40204;SDS011;26963;42.666;23.366;2022-07-03T03:13:16;9.40;;;7.03;;
40204;SDS011;26963;42.666;23.366;2022-07-03T03:18:52;8.55;;;7.30;;
40204;SDS011;26963;42.666;23.366;2022-07-03T03:21:36;8.97;;;7.17;;
40204;SDS011;26963;42.666;23.366;2022-07-03T03:24:17;9.88;;;7.60;;
40204;SDS011;26963;42.666;23.366;2022-07-03T03:26:50;8.27;;;7.45;;
40204;SDS011;26963;42.666;23.366;2022-07-03T03:31:47;8.55;;;6.85;;
40204;SDS011;26963;42.666;23.366;2022-07-03T03:34:24;9.13;;;7.88;;
40204;SDS011;26963;42.666;23.366;2022-07-03T03:36:54;9.82;;;7.43;;
40204;SDS011;26963;42.666;23.366;2022-07-03T03:39:20;9.80;;;7.70;;
40204;SDS011;26963;42.666;23.366;2022-07-03T03:41:48;9.32;;;6.93;;
40204;SDS011;26963;42.666;23.366;2022-07-03T03:44:14;7.80;;;6.60;;
40204;SDS011;26963;42.666;23.366;2022-07-03T03:46:55;10.45;;;7.22;;
40204;SDS011;26963;42.666;23.366;2022-07-03T03:52:11;9.63;;;8.50;;
40204;SDS011;26963;42.666;23.366;2022-07-03T03:54:37;12.18;;;9.05;;
40204;SDS011;26963;42.666;23.366;2022-07-03T03:57:14;13.70;;;8.73;;
40204;SDS011;26963;42.666;23.366;2022-07-03T03:59:46;14.43;;;9.35;;
40204;SDS011;26963;42.666;23.366;2022-07-03T04:02:15;14.95;;;8.15;;
40204;SDS011;26963;42.666;23.366;2022-07-03T04:04:44;10.27;;;8.18;;
40204;SDS011;26963;42.666;23.366;2022-07-03T04:07:13;10.07;;;8.45;;
40204;SDS011;26963;42.666;23.366;2022-07-03T04:09:42;12.02;;;9.90;;
40204;SDS011;26963;42.666;23.366;2022-07-03T04:12:12;11.18;;;8.10;;
40204;SDS011;26963;42.666;23.366;2022-07-03T04:14:38;9.55;;;7.88;;
40204;SDS011;26963;42.666;23.366;2022-07-03T04:17:04;9.30;;;7.80;;
40204;SDS011;26963;42.666;23.366;2022-07-03T04:19:33;10.93;;;8.18;;
40204;SDS011;26963;42.666;23.366;2022-07-03T04:22:02;9.32;;;8.32;;
40204;SDS011;26963;42.666;23.366;2022-07-03T04:24:37;11.30;;;7.88;;
40204;SDS011;26963;42.666;23.366;2022-07-03T04:27:18;10.05;;;7.97;;
40204;SDS011;26963;42.666;23.366;2022-07-03T04:29:43;8.95;;;7.72;;
40204;SDS011;26963;42.666;23.366;2022-07-03T04:32:15;15.02;;;8.38;;
40204;SDS011;26963;42.666;23.366;2022-07-03T04:34:44;9.93;;;7.78;;
40204;SDS011;26963;42.666;23.366;2022-07-03T04:37:15;16.17;;;8.50;;
40204;SDS011;26963;42.666;23.366;2022-07-03T04:39:44;12.68;;;7.75;;
40204;SDS011;26963;42.666;23.366;2022-07-03T04:42:25;12.73;;;7.35;;
40204;SDS011;26963;42.666;23.366;2022-07-03T04:44:54;12.35;;;6.88;;
40204;SDS011;26963;42.666;23.366;2022-07-03T04:47:22;8.38;;;7.30;;
40204;SDS011;26963;42.666;23.366;2022-07-03T04:49:51;10.90;;;7.47;;
40204;SDS011;26963;42.666;23.366;2022-07-03T04:52:19;11.18;;;7.20;;
40204;SDS011;26963;42.666;23.366;2022-07-03T04:54:47;11.07;;;9.07;;
40204;SDS011;26963;42.666;23.366;2022-07-03T04:57:13;10.00;;;8.52;;
40204;SDS011;26963;42.666;23.366;2022-07-03T04:59:38;8.18;;;7.38;;
40204;SDS011;26963;42.666;23.366;2022-07-03T05:02:07;11.15;;;7.35;;
40204;SDS011;26963;42.666;23.366;2022-07-03T05:04:39;11.35;;;8.10;;
40204;SDS011;26963;42.666;23.366;2022-07-03T05:07:07;12.45;;;7.60;;
40204;SDS011;26963;42.666;23.366;2022-07-03T05:09:36;12.20;;;7.68;;
40204;SDS011;26963;42.666;23.366;2022-07-03T05:12:07;11.35;;;7.63;;
40204;SDS011;26963;42.666;23.366;2022-07-03T05:14:36;13.27;;;9.63;;
40204;SDS011;26963;42.666;23.366;2022-07-03T05:17:01;16.55;;;9.52;;
40204;SDS011;26963;42.666;23.366;2022-07-03T05:19:30;11.07;;;9.20;;
40204;SDS011;26963;42.666;23.366;2022-07-03T05:22:17;15.70;;;9.38;;
40204;SDS011;26963;42.666;23.366;2022-07-03T05:25:07;11.02;;;9.95;;
40204;SDS011;26963;42.666;23.366;2022-07-03T05:27:36;11.80;;;9.80;;
40204;SDS011;26963;42.666;23.366;2022-07-03T05:30:03;12.70;;;9.52;;
40204;SDS011;26963;42.666;23.366;2022-07-03T05:32:29;14.10;;;10.18;;
40204;SDS011;26963;42.666;23.366;2022-07-03T05:34:55;11.98;;;9.65;;
40204;SDS011;26963;42.666;23.366;2022-07-03T05:37:33;12.52;;;10.23;;
40204;SDS011;26963;42.666;23.366;2022-07-03T05:40:13;16.17;;;11.23;;
40204;SDS011;26963;42.666;23.366;2022-07-03T05:42:45;13.80;;;11.70;;
40204;SDS011;26963;42.666;23.366;2022-07-03T05:45:18;13.55;;;11.02;;
40204;SDS011;26963;42.666;23.366;2022-07-03T05:47:44;16.20;;;11.65;;
40204;SDS011;26963;42.666;23.366;2022-07-03T05:50:10;13.10;;;10.10;;
40204;SDS011;26963;42.666;23.366;2022-07-03T05:52:39;14.60;;;10.88;;
40204;SDS011;26963;42.666;23.366;2022-07-03T05:55:05;12.02;;;10.82;;
40204;SDS011;26963;42.666;23.366;2022-07-03T05:57:33;11.13;;;9.95;;
40204;SDS011;26963;42.666;23.366;2022-07-03T06:00:02;9.98;;;8.95;;
40204;SDS011;26963;42.666;23.366;2022-07-03T06:02:29;12.68;;;10.20;;
40204;SDS011;26963;42.666;23.366;2022-07-03T06:05:00;16.40;;;9.70;;
40204;SDS011;26963;42.666;23.366;2022-07-03T06:07:26;10.35;;;8.65;;
40204;SDS011;26963;42.666;23.366;2022-07-03T06:09:51;14.85;;;9.50;;
40204;SDS011;26963;42.666;23.366;2022-07-03T06:12:22;11.18;;;8.90;;
40204;SDS011;26963;42.666;23.366;2022-07-03T06:14:51;9.82;;;8.45;;
40204;SDS011;26963;42.666;23.366;2022-07-03T06:17:19;10.63;;;8.50;;
40204;SDS011;26963;42.666;23.366;2022-07-03T06:19:47;12.57;;;8.48;;
40204;SDS011;26963;42.666;23.366;2022-07-03T06:22:19;10.07;;;8.32;;
40204;SDS011;26963;42.666;23.366;2022-07-03T06:29:59;11.60;;;8.38;;
40204;SDS011;26963;42.666;23.366;2022-07-03T06:32:28;11.00;;;7.85;;
40204;SDS011;26963;42.666;23.366;2022-07-03T06:34:56;12.70;;;8.20;;
40204;SDS011;26963;42.666;23.366;2022-07-03T06:37:46;10.88;;;8.43;;
40204;SDS011;26963;42.666;23.366;2022-07-03T06:40:16;14.38;;;8.63;;
40204;SDS011;26963;42.666;23.366;2022-07-03T06:42:43;8.88;;;7.97;;
40204;SDS011;26963;42.666;23.366;2022-07-03T06:45:12;10.45;;;8.02;;
40204;SDS011;26963;42.666;23.366;2022-07-03T06:50:15;8.70;;;7.15;;
40204;SDS011;26963;42.666;23.366;2022-07-03T06:55:12;15.00;;;7.60;;
40204;SDS011;26963;42.666;23.366;2022-07-03T06:57:47;8.70;;;6.72;;
40204;SDS011;26963;42.666;23.366;2022-07-03T07:00:16;8.00;;;6.40;;
40204;SDS011;26963;42.666;23.366;2022-07-03T07:03:13;7.43;;;6.03;;
40204;SDS011;26963;42.666;23.366;2022-07-03T07:05:38;7.88;;;6.20;;
40204;SDS011;26963;42.666;23.366;2022-07-03T07:08:04;15.05;;;6.28;;
40204;SDS011;26963;42.666;23.366;2022-07-03T07:10:29;9.15;;;5.80;;
40204;SDS011;26963;42.666;23.366;2022-07-03T07:12:58;7.05;;;6.28;;
40204;SDS011;26963;42.666;23.366;2022-07-03T07:15:29;6.97;;;6.03;;
40204;SDS011;26963;42.666;23.366;2022-07-03T07:18:03;10.15;;;7.05;;
40204;SDS011;26963;42.666;23.366;2022-07-03T07:20:34;7.82;;;6.57;;
40204;SDS011;26963;42.666;23.366;2022-07-03T07:23:05;12.77;;;6.70;;
40204;SDS011;26963;42.666;23.366;2022-07-03T07:25:37;12.73;;;6.82;;
40204;SDS011;26963;42.666;23.366;2022-07-03T07:28:15;7.47;;;6.70;;
40204;SDS011;26963;42.666;23.366;2022-07-03T07:30:55;9.88;;;6.20;;
40204;SDS011;26963;42.666;23.366;2022-07-03T07:33:25;16.63;;;6.70;;
40204;SDS011;26963;42.666;23.366;2022-07-03T07:36:00;8.27;;;6.22;;
40204;SDS011;26963;42.666;23.366;2022-07-03T07:38:28;10.27;;;6.70;;
40204;SDS011;26963;42.666;23.366;2022-07-03T07:40:54;10.35;;;7.63;;
40204;SDS011;26963;42.666;23.366;2022-07-03T07:43:20;15.02;;;8.70;;
40204;SDS011;26963;42.666;23.366;2022-07-03T07:45:45;9.82;;;6.82;;
40204;SDS011;26963;42.666;23.366;2022-07-03T07:48:11;13.45;;;9.38;;
40204;SDS011;26963;42.666;23.366;2022-07-03T07:53:15;14.88;;;7.97;;
40204;SDS011;26963;42.666;23.366;2022-07-03T07:55:46;8.52;;;6.97;;
40204;SDS011;26963;42.666;23.366;2022-07-03T07:58:12;8.85;;;6.55;;
40204;SDS011;26963;42.666;23.366;2022-07-03T08:00:46;11.45;;;7.75;;
40204;SDS011;26963;42.666;23.366;2022-07-03T08:03:36;12.77;;;9.65;;
40204;SDS011;26963;42.666;23.366;2022-07-03T08:06:22;15.20;;;13.70;;
40204;SDS011;26963;42.666;23.366;2022-07-03T08:08:56;9.60;;;6.90;;
40204;SDS011;26963;42.666;23.366;2022-07-03T08:11:21;9.52;;;8.63;;
40204;SDS011;26963;42.666;23.366;2022-07-03T08:14:04;11.57;;;6.50;;
40204;SDS011;26963;42.666;23.366;2022-07-03T08:16:39;6.75;;;6.15;;
40204;SDS011;26963;42.666;23.366;2022-07-03T08:19:10;7.10;;;6.30;;
40204;SDS011;26963;42.666;23.366;2022-07-03T08:24:09;10.88;;;6.78;;
40204;SDS011;26963;42.666;23.366;2022-07-03T08:26:48;10.77;;;6.32;;
40204;SDS011;26963;42.666;23.366;2022-07-03T08:29:14;11.35;;;7.50;;
40204;SDS011;26963;42.666;23.366;2022-07-03T08:31:50;7.85;;;6.03;;
40204;SDS011;26963;42.666;23.366;2022-07-03T08:34:16;9.80;;;6.30;;
40204;SDS011;26963;42.666;23.366;2022-07-03T08:36:44;7.85;;;6.53;;
40204;SDS011;26963;42.666;23.366;2022-07-03T08:39:12;10.02;;;7.05;;
40204;SDS011;26963;42.666;23.366;2022-07-03T08:41:40;7.88;;;7.05;;
40204;SDS011;26963;42.666;23.366;2022-07-03T08:44:24;9.07;;;6.65;;
40204;SDS011;26963;42.666;23.366;2022-07-03T08:46:52;11.05;;;6.90;;
40204;SDS011;26963;42.666;23.366;2022-07-03T08:49:28;25.77;;;9.57;;
40204;SDS011;26963;42.666;23.366;2022-07-03T08:51:54;8.30;;;5.93;;
40204;SDS011;26963;42.666;23.366;2022-07-03T08:54:20;21.42;;;11.25;;
40204;SDS011;26963;42.666;23.366;2022-07-03T08:56:46;22.52;;;10.02;;
40204;SDS011;26963;42.666;23.366;2022-07-03T08:59:12;10.60;;;7.13;;
40204;SDS011;26963;42.666;23.366;2022-07-03T09:01:39;7.32;;;5.78;;
40204;SDS011;26963;42.666;23.366;2022-07-03T09:04:10;8.65;;;6.30;;
40204;SDS011;26963;42.666;23.366;2022-07-03T09:06:39;7.95;;;5.85;;
40204;SDS011;26963;42.666;23.366;2022-07-03T09:09:06;8.65;;;6.25;;
40204;SDS011;26963;42.666;23.366;2022-07-03T09:11:36;6.28;;;5.68;;
40204;SDS011;26963;42.666;23.366;2022-07-03T09:14:06;7.90;;;6.18;;
40204;SDS011;26963;42.666;23.366;2022-07-03T09:16:35;6.93;;;5.75;;
40204;SDS011;26963;42.666;23.366;2022-07-03T09:19:01;9.50;;;5.57;;
40204;SDS011;26963;42.666;23.366;2022-07-03T09:21:40;7.93;;;5.50;;
40204;SDS011;26963;42.666;23.366;2022-07-03T09:24:07;9.55;;;5.85;;
40204;SDS011;26963;42.666;23.366;2022-07-03T09:26:50;7.60;;;5.70;;
40204;SDS011;26963;42.666;23.366;2022-07-03T09:29:20;9.80;;;5.55;;
40204;SDS011;26963;42.666;23.366;2022-07-03T09:31:53;7.90;;;5.32;;
40204;SDS011;26963;42.666;23.366;2022-07-03T09:34:21;12.57;;;5.93;;
40204;SDS011;26963;42.666;23.366;2022-07-03T09:36:48;8.70;;;6.07;;
40204;SDS011;26963;42.666;23.366;2022-07-03T09:39:28;8.68;;;6.07;;
40204;SDS011;26963;42.666;23.366;2022-07-03T09:42:05;8.95;;;5.68;;
40204;SDS011;26963;42.666;23.366;2022-07-03T09:44:41;9.32;;;5.82;;
40204;SDS011;26963;42.666;23.366;2022-07-03T09:49:48;10.55;;;5.90;;
40204;SDS011;26963;42.666;23.366;2022-07-03T09:57:35;9.05;;;5.15;;
40204;SDS011;26963;42.666;23.366;2022-07-03T10:00:21;6.28;;;5.45;;
40204;SDS011;26963;42.666;23.366;2022-07-03T10:05:38;5.72;;;4.43;;
40204;SDS011;26963;42.666;23.366;2022-07-03T10:08:06;7.55;;;4.80;;
40204;SDS011;26963;42.666;23.366;2022-07-03T10:10:40;6.63;;;4.93;;
40204;SDS011;26963;42.666;23.366;2022-07-03T10:13:09;7.82;;;4.97;;
40204;SDS011;26963;42.666;23.366;2022-07-03T10:15:37;7.53;;;5.05;;
40204;SDS011;26963;42.666;23.366;2022-07-03T10:18:04;8.55;;;4.63;;
40204;SDS011;26963;42.666;23.366;2022-07-03T10:20:49;8.02;;;4.50;;
40204;SDS011;26963;42.666;23.366;2022-07-03T10:23:43;6.68;;;4.05;;
40204;SDS011;26963;42.666;23.366;2022-07-03T10:26:09;6.68;;;4.50;;
40204;SDS011;26963;42.666;23.366;2022-07-03T10:28:45;4.75;;;4.15;;
40204;SDS011;26963;42.666;23.366;2022-07-03T10:31:13;5.38;;;3.88;;
40204;SDS011;26963;42.666;23.366;2022-07-03T10:33:39;7.00;;;4.28;;
40204;SDS011;26963;42.666;23.366;2022-07-03T10:36:05;5.70;;;3.60;;
40204;SDS011;26963;42.666;23.366;2022-07-03T10:41:03;5.43;;;3.78;;
40204;SDS011;26963;42.666;23.366;2022-07-03T10:43:53;4.70;;;3.92;;
40204;SDS011;26963;42.666;23.366;2022-07-03T10:46:37;6.43;;;3.83;;
40204;SDS011;26963;42.666;23.366;2022-07-03T10:49:09;6.40;;;3.85;;
40204;SDS011;26963;42.666;23.366;2022-07-03T11:07:26;6.65;;;3.97;;
40204;SDS011;26963;42.666;23.366;2022-07-03T11:18:30;5.03;;;4.50;;
40204;SDS011;26963;42.666;23.366;2022-07-03T11:29:37;5.97;;;4.30;;
40204;SDS011;26963;42.666;23.366;2022-07-03T11:35:08;4.50;;;3.90;;
40204;SDS011;26963;42.666;23.366;2022-07-03T11:37:42;6.05;;;4.30;;
40204;SDS011;26963;42.666;23.366;2022-07-03T11:40:08;6.20;;;4.20;;
40204;SDS011;26963;42.666;23.366;2022-07-03T11:42:49;6.35;;;4.70;;
40204;SDS011;26963;42.666;23.366;2022-07-03T11:47:53;5.18;;;4.50;;
40204;SDS011;26963;42.666;23.366;2022-07-03T11:50:35;8.93;;;4.40;;
40204;SDS011;26963;42.666;23.366;2022-07-03T11:53:28;5.82;;;4.40;;
40204;SDS011;26963;42.666;23.366;2022-07-03T11:55:56;7.70;;;4.65;;
40204;SDS011;26963;42.666;23.366;2022-07-03T11:58:22;4.35;;;3.95;;
40204;SDS011;26963;42.666;23.366;2022-07-03T12:06:59;6.70;;;4.47;;
40204;SDS011;26963;42.666;23.366;2022-07-03T12:09:31;6.07;;;4.13;;
40204;SDS011;26963;42.666;23.366;2022-07-03T12:12:05;5.38;;;4.55;;
40204;SDS011;26963;42.666;23.366;2022-07-03T12:14:55;6.28;;;4.22;;
40204;SDS011;26963;42.666;23.366;2022-07-03T12:17:24;4.93;;;3.90;;
40204;SDS011;26963;42.666;23.366;2022-07-03T12:19:55;4.63;;;4.13;;
40204;SDS011;26963;42.666;23.366;2022-07-03T12:22:32;9.38;;;4.65;;
40204;SDS011;26963;42.666;23.366;2022-07-03T12:25:12;8.13;;;4.65;;
40204;SDS011;26963;42.666;23.366;2022-07-03T12:27:52;6.72;;;4.32;;
40204;SDS011;26963;42.666;23.366;2022-07-03T12:30:40;5.38;;;4.70;;
40204;SDS011;26963;42.666;23.366;2022-07-03T12:33:06;5.35;;;4.35;;
40204;SDS011;26963;42.666;23.366;2022-07-03T12:35:32;8.68;;;4.00;;
40204;SDS011;26963;42.666;23.366;2022-07-03T12:38:00;6.28;;;4.72;;
40204;SDS011;26963;42.666;23.366;2022-07-03T12:40:26;5.28;;;4.68;;
40204;SDS011;26963;42.666;23.366;2022-07-03T12:42:54;6.05;;;4.88;;
40204;SDS011;26963;42.666;23.366;2022-07-03T12:45:21;6.25;;;4.40;;
40204;SDS011;26963;42.666;23.366;2022-07-03T12:48:04;9.02;;;5.50;;
40204;SDS011;26963;42.666;23.366;2022-07-03T12:50:47;7.28;;;5.50;;
40204;SDS011;26963;42.666;23.366;2022-07-03T12:53:29;6.70;;;5.25;;
40204;SDS011;26963;42.666;23.366;2022-07-03T12:56:00;6.70;;;4.45;;
40204;SDS011;26963;42.666;23.366;2022-07-03T12:58:27;5.57;;;4.10;;
40204;SDS011;26963;42.666;23.366;2022-07-03T13:03:54;5.38;;;4.45;;
40204;SDS011;26963;42.666;23.366;2022-07-03T13:06:20;7.40;;;4.03;;
40204;SDS011;26963;42.666;23.366;2022-07-03T13:14:02;6.07;;;4.68;;
40204;SDS011;26963;42.666;23.366;2022-07-03T13:16:36;8.40;;;5.40;;
40204;SDS011;26963;42.666;23.366;2022-07-03T13:19:10;5.88;;;4.60;;
40204;SDS011;26963;42.666;23.366;2022-07-03T13:21:40;7.05;;;4.72;;
40204;SDS011;26963;42.666;23.366;2022-07-03T13:24:08;8.82;;;5.40;;
40204;SDS011;26963;42.666;23.366;2022-07-03T13:26:51;8.50;;;5.10;;
40204;SDS011;26963;42.666;23.366;2022-07-03T13:29:34;7.32;;;5.15;;
40204;SDS011;26963;42.666;23.366;2022-07-03T13:32:00;7.38;;;5.13;;
40204;SDS011;26963;42.666;23.366;2022-07-03T13:34:25;10.45;;;4.93;;
40204;SDS011;26963;42.666;23.366;2022-07-03T13:37:03;10.00;;;5.38;;
40204;SDS011;26963;42.666;23.366;2022-07-03T13:39:29;9.75;;;5.53;;
40204;SDS011;26963;42.666;23.366;2022-07-03T13:41:54;5.95;;;4.97;;
40204;SDS011;26963;42.666;23.366;2022-07-03T13:44:20;10.15;;;4.65;;
40204;SDS011;26963;42.666;23.366;2022-07-03T13:46:48;7.05;;;4.95;;
40204;SDS011;26963;42.666;23.366;2022-07-03T13:49:14;5.35;;;4.75;;
40204;SDS011;26963;42.666;23.366;2022-07-03T13:51:39;7.65;;;5.18;;
40204;SDS011;26963;42.666;23.366;2022-07-03T13:54:05;9.63;;;5.00;;
40204;SDS011;26963;42.666;23.366;2022-07-03T13:56:33;8.35;;;5.10;;
40204;SDS011;26963;42.666;23.366;2022-07-03T13:58:59;6.75;;;4.90;;
40204;SDS011;26963;42.666;23.366;2022-07-03T14:01:30;10.15;;;5.13;;
40204;SDS011;26963;42.666;23.366;2022-07-03T14:03:56;6.72;;;5.13;;
40204;SDS011;26963;42.666;23.366;2022-07-03T14:06:24;6.90;;;4.90;;
40204;SDS011;26963;42.666;23.366;2022-07-03T14:08:49;7.55;;;5.00;;
40204;SDS011;26963;42.666;23.366;2022-07-03T14:11:24;6.68;;;5.20;;
40204;SDS011;26963;42.666;23.366;2022-07-03T14:13:50;13.90;;;5.50;;
40204;SDS011;26963;42.666;23.366;2022-07-03T14:16:16;6.05;;;5.03;;
40204;SDS011;26963;42.666;23.366;2022-07-03T14:18:41;8.13;;;5.45;;
40204;SDS011;26963;42.666;23.366;2022-07-03T14:21:07;7.20;;;5.18;;
40204;SDS011;26963;42.666;23.366;2022-07-03T14:23:36;8.60;;;5.20;;
40204;SDS011;26963;42.666;23.366;2022-07-03T14:29:06;8.02;;;5.30;;
40204;SDS011;26963;42.666;23.366;2022-07-03T14:31:51;6.05;;;5.20;;
40204;SDS011;26963;42.666;23.366;2022-07-03T14:34:37;7.03;;;4.80;;
40204;SDS011;26963;42.666;23.366;2022-07-03T14:37:03;10.07;;;5.18;;
40204;SDS011;26963;42.666;23.366;2022-07-03T14:39:31;6.55;;;5.43;;
40204;SDS011;26963;42.666;23.366;2022-07-03T14:41:59;8.32;;;5.32;;
40204;SDS011;26963;42.666;23.366;2022-07-03T14:44:24;10.90;;;5.53;;
40204;SDS011;26963;42.666;23.366;2022-07-03T14:46:54;5.95;;;5.05;;
40204;SDS011;26963;42.666;23.366;2022-07-03T14:49:20;7.30;;;5.43;;
40204;SDS011;26963;42.666;23.366;2022-07-03T14:51:45;8.27;;;5.40;;
40204;SDS011;26963;42.666;23.366;2022-07-03T14:54:16;8.50;;;5.20;;
40204;SDS011;26963;42.666;23.366;2022-07-03T14:56:53;10.68;;;5.65;;
40204;SDS011;26963;42.666;23.366;2022-07-03T14:59:22;7.28;;;5.60;;
40204;SDS011;26963;42.666;23.366;2022-07-03T15:01:52;10.02;;;5.40;;
40204;SDS011;26963;42.666;23.366;2022-07-03T15:05:10;7.90;;;5.55;;
40204;SDS011;26963;42.666;23.366;2022-07-03T15:07:43;8.00;;;5.43;;
40204;SDS011;26963;42.666;23.366;2022-07-03T15:10:15;7.82;;;5.32;;
40204;SDS011;26963;42.666;23.366;2022-07-03T15:12:42;8.77;;;4.88;;
40204;SDS011;26963;42.666;23.366;2022-07-03T15:15:24;6.97;;;5.25;;
40204;SDS011;26963;42.666;23.366;2022-07-03T15:18:06;5.90;;;5.30;;
40204;SDS011;26963;42.666;23.366;2022-07-03T15:21:09;9.60;;;5.18;;
40204;SDS011;26963;42.666;23.366;2022-07-03T15:24:32;5.68;;;4.88;;
40204;SDS011;26963;42.666;23.366;2022-07-03T15:27:01;6.97;;;4.75;;
40204;SDS011;26963;42.666;23.366;2022-07-03T15:29:27;10.55;;;5.35;;
40204;SDS011;26963;42.666;23.366;2022-07-03T15:31:53;6.65;;;5.20;;
40204;SDS011;26963;42.666;23.366;2022-07-03T15:34:19;8.60;;;4.90;;
40204;SDS011;26963;42.666;23.366;2022-07-03T15:36:45;6.55;;;5.10;;
40204;SDS011;26963;42.666;23.366;2022-07-03T15:39:32;9.18;;;5.07;;
40204;SDS011;26963;42.666;23.366;2022-07-03T15:47:35;5.32;;;4.60;;
40204;SDS011;26963;42.666;23.366;2022-07-03T15:53:14;5.03;;;4.53;;
40204;SDS011;26963;42.666;23.366;2022-07-03T15:55:44;6.97;;;4.70;;
40204;SDS011;26963;42.666;23.366;2022-07-03T15:58:12;13.07;;;5.32;;
40204;SDS011;26963;42.666;23.366;2022-07-03T16:00:39;5.13;;;4.60;;
40204;SDS011;26963;42.666;23.366;2022-07-03T16:05:48;6.75;;;4.88;;
40204;SDS011;26963;42.666;23.366;2022-07-03T16:08:14;8.25;;;5.18;;
40204;SDS011;26963;42.666;23.366;2022-07-03T16:10:41;8.15;;;5.25;;
40204;SDS011;26963;42.666;23.366;2022-07-03T16:13:07;7.95;;;5.25;;
40204;SDS011;26963;42.666;23.366;2022-07-03T16:15:34;7.88;;;4.95;;
40204;SDS011;26963;42.666;23.366;2022-07-03T16:18:04;9.32;;;4.82;;
40204;SDS011;26963;42.666;23.366;2022-07-03T16:20:31;7.95;;;5.47;;
40204;SDS011;26963;42.666;23.366;2022-07-03T16:23:01;10.23;;;5.43;;
40204;SDS011;26963;42.666;23.366;2022-07-03T16:25:32;10.80;;;5.18;;
40204;SDS011;26963;42.666;23.366;2022-07-03T16:28:14;6.65;;;5.30;;
40204;SDS011;26963;42.666;23.366;2022-07-03T16:30:43;6.47;;;5.40;;
40204;SDS011;26963;42.666;23.366;2022-07-03T16:33:11;6.65;;;5.10;;
40204;SDS011;26963;42.666;23.366;2022-07-03T16:35:42;7.28;;;4.95;;
40204;SDS011;26963;42.666;23.366;2022-07-03T16:38:11;8.77;;;5.50;;
40204;SDS011;26963;42.666;23.366;2022-07-03T16:40:42;7.50;;;5.20;;
40204;SDS011;26963;42.666;23.366;2022-07-03T16:43:08;11.07;;;5.35;;
40204;SDS011;26963;42.666;23.366;2022-07-03T16:45:36;11.35;;;5.50;;
40204;SDS011;26963;42.666;23.366;2022-07-03T16:48:14;6.90;;;5.05;;
40204;SDS011;26963;42.666;23.366;2022-07-03T16:50:46;6.93;;;5.22;;
40204;SDS011;26963;42.666;23.366;2022-07-03T16:53:27;8.95;;;5.32;;
40204;SDS011;26963;42.666;23.366;2022-07-03T16:55:52;10.02;;;5.35;;
40204;SDS011;26963;42.666;23.366;2022-07-03T16:58:19;7.70;;;5.28;;
40204;SDS011;26963;42.666;23.366;2022-07-03T17:00:47;8.35;;;5.40;;
40204;SDS011;26963;42.666;23.366;2022-07-03T17:03:13;7.60;;;5.80;;
40204;SDS011;26963;42.666;23.366;2022-07-03T17:05:46;6.55;;;5.75;;
40204;SDS011;26963;42.666;23.366;2022-07-03T17:08:16;6.68;;;5.53;;
40204;SDS011;26963;42.666;23.366;2022-07-03T17:10:44;7.18;;;5.93;;
40204;SDS011;26963;42.666;23.366;2022-07-03T17:13:13;11.48;;;6.05;;
40204;SDS011;26963;42.666;23.366;2022-07-03T17:15:42;8.30;;;6.60;;
40204;SDS011;26963;42.666;23.366;2022-07-03T17:18:11;6.63;;;5.47;;
40204;SDS011;26963;42.666;23.366;2022-07-03T17:20:41;8.68;;;5.38;;
40204;SDS011;26963;42.666;23.366;2022-07-03T17:23:09;8.43;;;5.70;;
40204;SDS011;26963;42.666;23.366;2022-07-03T17:25:42;9.00;;;5.95;;
40204;SDS011;26963;42.666;23.366;2022-07-03T17:28:21;7.30;;;5.68;;